createdAt,value
2017-09-18T00:01:14.320Z,11.87
2017-09-18T00:03:44.061Z,12.40
2017-09-18T00:06:13.017Z,12.50
2017-09-18T00:08:42.770Z,11.60
2017-09-18T00:11:11.741Z,13.50
2017-09-18T00:13:40.722Z,12.57
2017-09-18T00:16:09.674Z,12.93
2017-09-18T00:18:38.681Z,12.70
2017-09-18T00:21:08.033Z,11.83
2017-09-18T00:23:39.390Z,11.07
2017-09-18T00:26:08.468Z,12.33
2017-09-18T00:28:37.501Z,13.53
2017-09-18T00:31:06.460Z,13.50
2017-09-18T00:33:35.969Z,12.70
2017-09-18T00:36:04.963Z,12.50
2017-09-18T00:38:34.381Z,12.63
2017-09-18T00:41:03.325Z,11.97
2017-09-18T00:43:32.284Z,12.40
2017-09-18T00:46:01.269Z,12.17
2017-09-18T00:48:30.242Z,12.20
2017-09-18T00:50:59.230Z,12.23
2017-09-18T00:53:28.578Z,12.13
2017-09-18T00:55:58.337Z,11.60
2017-09-18T00:58:27.696Z,13.53
2017-09-18T01:00:56.693Z,12.87
2017-09-18T01:03:25.662Z,13.23
2017-09-18T01:05:54.808Z,14.23
2017-09-18T01:08:24.182Z,12.47
2017-09-18T01:10:53.165Z,14.17
2017-09-18T01:13:22.569Z,13.77
2017-09-18T01:15:51.616Z,14.03
2017-09-18T01:18:20.572Z,14.63
2017-09-18T01:20:49.553Z,15.07
2017-09-18T01:23:18.511Z,13.40
2017-09-18T01:25:48.274Z,13.40
2017-09-18T01:28:17.254Z,14.37
2017-09-18T01:30:46.264Z,13.13
2017-09-18T01:33:15.230Z,15.83
2017-09-18T01:35:44.225Z,14.10
2017-09-18T01:38:13.191Z,14.77
2017-09-18T01:40:42.557Z,14.10
2017-09-18T01:43:11.520Z,15.17
2017-09-18T01:45:40.510Z,14.10
2017-09-18T01:48:09.472Z,14.83
2017-09-18T01:50:39.215Z,14.10
2017-09-18T01:53:08.565Z,14.90
2017-09-18T01:55:37.941Z,16.10
2017-09-18T01:58:06.923Z,14.63
2017-09-18T02:00:35.913Z,14.90
2017-09-18T02:03:04.872Z,14.70
2017-09-18T02:05:33.919Z,16.57
2017-09-18T02:08:02.886Z,20.10
2017-09-18T02:10:31.872Z,18.87
2017-09-18T02:13:00.836Z,17.33
2017-09-18T02:15:30.585Z,16.93
2017-09-18T02:17:59.557Z,17.37
2017-09-18T02:20:28.612Z,16.80
2017-09-18T02:22:57.689Z,20.43
2017-09-18T02:25:26.644Z,18.80
2017-09-18T02:27:56.028Z,17.03
2017-09-18T02:30:25.036Z,17.40
2017-09-18T02:32:54.775Z,18.77
2017-09-18T02:35:23.757Z,19.57
2017-09-18T02:37:52.746Z,18.67
2017-09-18T02:40:21.719Z,19.60
2017-09-18T02:42:50.708Z,18.70
2017-09-18T02:45:19.692Z,21.40
2017-09-18T02:47:48.805Z,22.37
2017-09-18T02:50:17.765Z,20.03
2017-09-18T02:52:46.743Z,17.93
2017-09-18T02:55:16.469Z,18.43
2017-09-18T02:57:45.547Z,18.53
2017-09-18T03:00:15.269Z,19.43
2017-09-18T03:02:44.660Z,24.43
2017-09-18T03:05:13.608Z,20.20
2017-09-18T03:07:43.003Z,19.63
2017-09-18T03:10:12.075Z,17.07
2017-09-18T03:12:41.028Z,20.13
2017-09-18T03:15:10.414Z,18.10
2017-09-18T03:17:39.441Z,18.03
2017-09-18T03:20:08.428Z,17.90
2017-09-18T03:22:38.227Z,20.23
2017-09-18T03:25:08.042Z,20.13
2017-09-18T03:27:37.830Z,20.13
2017-09-18T03:30:08.291Z,20.50
2017-09-18T03:32:37.312Z,19.13
2017-09-18T03:35:06.261Z,17.77
2017-09-18T03:37:35.980Z,18.20
2017-09-18T03:40:04.970Z,17.80
2017-09-18T03:42:33.914Z,17.40
2017-09-18T03:45:02.908Z,16.93
2017-09-18T03:47:31.855Z,18.40
2017-09-18T03:50:00.849Z,17.60
2017-09-18T03:52:29.865Z,16.23
2017-09-18T03:54:58.867Z,20.97
2017-09-18T03:57:27.875Z,19.00
2017-09-18T03:59:56.863Z,20.90
2017-09-18T04:02:25.816Z,18.90
2017-09-18T04:04:54.800Z,17.90
2017-09-18T04:07:24.794Z,17.97
2017-09-18T04:09:54.541Z,15.17
2017-09-18T04:12:23.516Z,18.03
2017-09-18T04:14:52.507Z,19.50
2017-09-18T04:17:21.452Z,16.90
2017-09-18T04:19:50.434Z,18.27
2017-09-18T04:22:19.418Z,17.70
2017-09-18T04:24:49.127Z,17.50
2017-09-18T04:27:18.112Z,17.73
2017-09-18T04:29:47.175Z,16.90
2017-09-18T04:32:16.547Z,17.50
2017-09-18T04:34:46.293Z,18.00
2017-09-18T04:37:15.676Z,15.20
2017-09-18T04:39:45.384Z,16.80
2017-09-18T04:42:14.373Z,15.53
2017-09-18T04:44:44.089Z,16.30
2017-09-18T04:47:13.083Z,17.03
2017-09-18T04:49:42.904Z,17.30
2017-09-18T04:52:12.894Z,16.53
2017-09-18T04:54:42.272Z,18.37
2017-09-18T04:57:11.222Z,16.53
2017-09-18T04:59:40.232Z,17.90
2017-09-18T05:02:09.216Z,17.10
2017-09-18T05:04:38.180Z,16.33
2017-09-18T05:07:07.182Z,16.67
2017-09-18T05:09:36.893Z,18.10
2017-09-18T05:12:05.936Z,15.60
2017-09-18T05:14:35.655Z,15.53
2017-09-18T05:17:04.681Z,15.63
2017-09-18T05:19:33.658Z,15.27
2017-09-18T05:22:02.632Z,16.97
2017-09-18T05:24:31.646Z,17.00
2017-09-18T05:27:01.792Z,16.27
2017-09-18T05:29:31.920Z,15.13
2017-09-18T05:32:01.666Z,16.60
2017-09-18T05:34:30.613Z,12.97
2017-09-18T05:36:59.603Z,15.00
2017-09-18T05:39:29.010Z,16.07
2017-09-18T05:41:58.805Z,15.63
2017-09-18T05:44:27.757Z,18.33
2017-09-18T05:46:56.761Z,17.00
2017-09-18T05:49:26.516Z,17.80
2017-09-18T05:51:55.572Z,18.10
2017-09-18T05:54:24.981Z,18.90
2017-09-18T05:56:53.920Z,21.27
2017-09-18T05:59:23.401Z,20.17
2017-09-18T06:01:52.351Z,19.90
2017-09-18T06:04:21.316Z,20.57
2017-09-18T06:06:50.339Z,17.20
2017-09-18T06:09:19.462Z,22.13
2017-09-18T06:11:49.660Z,23.30
2017-09-18T06:14:18.747Z,19.90
2017-09-18T06:16:48.472Z,21.93
2017-09-18T06:19:17.486Z,21.57
2017-09-18T06:21:46.444Z,21.90
2017-09-18T06:24:16.240Z,22.90
2017-09-18T06:26:45.938Z,20.43
2017-09-18T06:29:14.966Z,21.90
2017-09-18T06:31:43.952Z,24.93
2017-09-18T06:34:12.979Z,22.87
2017-09-18T06:36:41.985Z,28.53
2017-09-18T06:39:11.432Z,23.57
2017-09-18T06:41:40.461Z,25.40
2017-09-18T06:44:10.198Z,21.10
2017-09-18T06:46:39.156Z,22.07
2017-09-18T06:49:08.555Z,25.10
2017-09-18T06:51:37.964Z,23.63
2017-09-18T06:54:07.340Z,21.03
2017-09-18T06:56:36.338Z,21.20
2017-09-18T06:59:05.753Z,21.60
2017-09-18T07:01:34.773Z,21.10
2017-09-18T07:04:04.490Z,23.37
2017-09-18T07:06:33.468Z,23.20
2017-09-18T07:09:02.431Z,23.23
2017-09-18T07:11:31.471Z,21.90
2017-09-18T07:14:00.427Z,20.60
2017-09-18T07:16:29.429Z,20.70
2017-09-18T07:18:58.397Z,21.67
2017-09-18T07:21:27.414Z,21.70
2017-09-18T07:23:56.375Z,23.25
2017-09-18T07:26:25.328Z,23.33
2017-09-18T07:28:55.089Z,21.30
2017-09-18T07:31:24.075Z,22.63
2017-09-18T07:33:53.072Z,19.63
2017-09-18T07:36:22.429Z,20.50
2017-09-18T07:38:52.180Z,23.73
2017-09-18T07:41:22.089Z,20.47
2017-09-18T07:43:51.469Z,21.87
2017-09-18T07:46:20.419Z,20.00
2017-09-18T07:48:49.580Z,19.77
2017-09-18T07:51:19.571Z,20.27
2017-09-18T07:53:48.569Z,19.13
2017-09-18T07:56:17.566Z,18.93
2017-09-18T07:58:46.557Z,19.03
2017-09-18T08:01:15.950Z,17.77
2017-09-18T08:03:45.004Z,18.97
2017-09-18T08:06:13.993Z,18.73
2017-09-18T08:08:43.001Z,19.07
2017-09-18T08:11:11.951Z,20.17
2017-09-18T08:13:41.737Z,19.30
2017-09-18T08:16:10.721Z,20.13
2017-09-18T08:18:40.481Z,17.93
2017-09-18T08:21:09.437Z,18.00
2017-09-18T08:23:38.418Z,19.13
2017-09-18T08:26:07.492Z,17.53
2017-09-18T08:28:37.214Z,17.73
2017-09-18T08:31:06.199Z,16.77
2017-09-18T08:33:35.566Z,17.60
2017-09-18T08:36:04.547Z,17.07
2017-09-18T08:38:33.909Z,15.77
2017-09-18T08:41:02.877Z,15.57
2017-09-18T08:43:32.619Z,14.50
2017-09-18T08:46:01.591Z,14.07
2017-09-18T08:48:30.679Z,14.73
2017-09-18T08:51:00.404Z,12.80
2017-09-18T08:53:29.373Z,13.73
2017-09-18T08:55:59.120Z,12.90
2017-09-18T08:58:28.107Z,13.67
2017-09-18T09:00:57.063Z,15.40
2017-09-18T09:03:26.448Z,14.90
2017-09-18T09:05:55.407Z,15.57
2017-09-18T09:08:24.427Z,18.10
2017-09-18T09:10:53.929Z,14.00
2017-09-18T09:13:22.929Z,15.40
2017-09-18T09:15:51.893Z,17.03
2017-09-18T09:18:20.875Z,18.08
2017-09-18T09:20:49.836Z,16.20
2017-09-18T09:23:19.636Z,16.20
2017-09-18T09:25:49.386Z,16.67
2017-09-18T09:28:18.412Z,15.77
2017-09-18T09:30:47.421Z,14.80
2017-09-18T09:33:17.194Z,15.60
2017-09-18T09:35:46.156Z,16.40
2017-09-18T09:38:15.561Z,16.67
2017-09-18T09:40:44.530Z,17.30
2017-09-18T09:43:14.288Z,15.93
2017-09-18T09:45:43.251Z,18.00
2017-09-18T09:48:13.165Z,13.83
2017-09-18T09:50:42.117Z,12.93
2017-09-18T09:53:11.897Z,13.70
2017-09-18T09:55:40.849Z,14.80
2017-09-18T09:58:09.864Z,14.00
2017-09-18T10:00:39.609Z,14.30
2017-09-18T10:03:08.604Z,16.13
2017-09-18T10:05:37.589Z,13.93
2017-09-18T10:08:06.588Z,14.63
2017-09-18T10:10:37.069Z,14.83
2017-09-18T10:13:06.477Z,16.80
2017-09-18T10:15:35.445Z,13.70
2017-09-18T10:18:04.822Z,14.97
2017-09-18T10:20:34.549Z,13.63
2017-09-18T10:23:04.308Z,13.97
2017-09-18T10:25:33.281Z,14.93
2017-09-18T10:28:02.285Z,15.20
2017-09-18T10:30:31.238Z,15.07
2017-09-18T10:33:00.226Z,14.27
2017-09-18T10:35:29.214Z,15.83
2017-09-18T10:37:58.278Z,16.30
2017-09-18T10:40:27.270Z,16.27
2017-09-18T10:42:56.240Z,19.13
2017-09-18T10:45:25.237Z,19.43
2017-09-18T10:47:54.652Z,18.43
2017-09-18T10:50:23.632Z,15.77
2017-09-18T10:52:52.598Z,18.50
2017-09-18T10:55:21.702Z,19.10
2017-09-18T10:57:50.744Z,19.05
2017-09-18T11:00:19.722Z,16.50
2017-09-18T11:02:48.693Z,14.73
2017-09-18T11:05:17.713Z,19.47
2017-09-18T11:07:47.433Z,18.80
2017-09-18T11:10:17.173Z,16.40
2017-09-18T11:12:46.529Z,17.63
2017-09-18T11:15:15.516Z,16.77
2017-09-18T11:17:44.497Z,15.20
2017-09-18T11:20:13.625Z,17.70
2017-09-18T11:22:42.583Z,18.07
2017-09-18T11:25:11.600Z,16.43
2017-09-18T11:27:41.329Z,17.27
2017-09-18T11:30:10.390Z,17.57
2017-09-18T11:32:39.386Z,16.10
2017-09-18T11:35:08.474Z,15.77
2017-09-18T11:37:37.456Z,14.43
2017-09-18T11:40:06.893Z,10.63
2017-09-18T11:42:36.606Z,11.27
2017-09-18T11:45:06.420Z,12.23
2017-09-18T11:47:36.148Z,12.57
2017-09-18T11:50:05.145Z,12.47
2017-09-18T11:52:34.159Z,11.77
2017-09-18T11:55:03.190Z,12.80
2017-09-18T11:57:32.123Z,14.00
2017-09-18T12:00:01.110Z,14.03
2017-09-18T12:02:30.077Z,15.00
2017-09-18T12:04:59.896Z,14.40
2017-09-18T12:07:28.896Z,14.70
2017-09-18T12:09:57.852Z,14.20
2017-09-18T12:12:27.608Z,13.80
2017-09-18T12:14:56.593Z,10.77
2017-09-18T12:17:25.568Z,12.77
2017-09-18T12:19:54.536Z,11.60
2017-09-18T12:22:23.529Z,10.60
2017-09-18T12:24:52.524Z,10.23
2017-09-18T12:27:22.304Z,11.40
2017-09-18T12:29:51.334Z,10.57
2017-09-18T12:32:20.704Z,12.30
2017-09-18T12:34:49.655Z,11.70
2017-09-18T12:37:18.646Z,8.83
2017-09-18T12:39:47.584Z,8.83
2017-09-18T12:42:16.552Z,8.53
2017-09-18T12:44:45.508Z,9.57
2017-09-18T12:47:14.474Z,10.53
2017-09-18T12:49:43.515Z,10.60
2017-09-18T12:52:12.528Z,10.50
2017-09-18T12:54:41.481Z,10.20
2017-09-18T12:57:10.451Z,10.30
2017-09-18T12:59:40.181Z,12.13
2017-09-18T13:02:09.552Z,11.10
2017-09-18T13:04:39.315Z,11.97
2017-09-18T13:07:08.361Z,13.23
2017-09-18T13:09:37.305Z,12.03
2017-09-18T13:12:06.332Z,13.50
2017-09-18T13:14:35.697Z,13.63
2017-09-18T13:17:04.685Z,15.00
2017-09-18T13:19:33.889Z,14.70
2017-09-18T13:22:03.677Z,14.07
2017-09-18T13:24:32.675Z,14.47
2017-09-18T13:27:02.279Z,15.13
2017-09-18T13:29:31.258Z,14.07
2017-09-18T13:32:00.273Z,14.60
2017-09-18T13:34:29.252Z,15.17
2017-09-18T13:36:58.271Z,15.23
2017-09-18T13:39:27.239Z,16.00
2017-09-18T13:41:56.252Z,15.73
2017-09-18T13:44:26.214Z,16.40
2017-09-18T13:46:55.198Z,14.07
2017-09-18T13:49:24.200Z,15.87
2017-09-18T13:51:53.949Z,16.87
2017-09-18T13:54:22.914Z,16.93
2017-09-18T13:56:51.900Z,16.67
2017-09-18T13:59:20.878Z,17.20
2017-09-18T14:01:50.713Z,18.47
2017-09-18T14:04:20.458Z,20.00
2017-09-18T14:06:49.414Z,20.57
2017-09-18T14:09:18.816Z,17.30
2017-09-18T14:11:47.774Z,20.50
2017-09-18T14:14:16.800Z,20.67
2017-09-18T14:16:46.611Z,22.57
2017-09-18T14:19:15.600Z,20.50
2017-09-18T14:21:44.564Z,20.60
2017-09-18T14:24:13.584Z,20.07
2017-09-18T14:26:42.581Z,20.40
2017-09-18T14:29:11.556Z,20.00
2017-09-18T14:31:41.309Z,21.63
2017-09-18T14:34:10.289Z,18.20
2017-09-18T14:36:39.274Z,20.13
2017-09-18T14:39:08.257Z,20.20
2017-09-18T14:41:37.270Z,20.07
2017-09-18T14:44:06.702Z,20.90
2017-09-18T14:46:35.643Z,19.40
2017-09-18T14:49:04.685Z,21.20
2017-09-18T14:51:33.701Z,20.47
2017-09-18T14:54:03.447Z,21.70
2017-09-18T14:56:32.420Z,21.13
2017-09-18T14:59:02.172Z,20.37
2017-09-18T15:01:31.138Z,18.43
2017-09-18T15:04:00.212Z,18.10
2017-09-18T15:06:29.974Z,9.07
2017-09-18T15:08:59.341Z,6.00
2017-09-18T15:11:28.272Z,4.70
2017-09-18T15:13:57.233Z,3.73
2017-09-18T15:16:26.247Z,5.23
2017-09-18T15:18:55.620Z,4.83
2017-09-18T15:21:24.621Z,5.23
2017-09-18T15:23:53.584Z,4.50
2017-09-18T15:26:23.328Z,3.17
2017-09-18T15:28:53.434Z,2.67
2017-09-18T15:31:22.512Z,5.30
2017-09-18T15:33:52.277Z,9.37
2017-09-18T15:36:21.252Z,10.73
2017-09-18T15:38:51.359Z,10.50
2017-09-18T15:41:21.113Z,8.30
2017-09-18T15:43:50.773Z,9.27
2017-09-18T15:46:19.749Z,10.30
2017-09-18T15:48:48.815Z,8.80
2017-09-18T15:51:18.740Z,9.70
2017-09-18T15:53:48.474Z,9.73
2017-09-18T15:56:17.543Z,10.23
2017-09-18T15:58:46.527Z,10.97
2017-09-18T16:01:16.302Z,12.03
2017-09-18T16:03:45.291Z,13.10
2017-09-18T16:06:14.278Z,12.67
2017-09-18T16:08:43.256Z,13.27
2017-09-18T16:11:13.340Z,16.97
2017-09-18T16:13:43.608Z,14.70
2017-09-18T16:16:13.176Z,14.03
2017-09-18T16:18:43.041Z,15.60
2017-09-18T16:21:12.816Z,15.83
2017-09-18T16:23:41.884Z,16.20
2017-09-18T16:26:11.696Z,14.47
2017-09-18T16:28:42.136Z,16.47
2017-09-18T16:31:11.098Z,15.53
2017-09-18T16:33:40.868Z,16.13
2017-09-18T16:36:09.896Z,15.77
2017-09-18T16:38:39.661Z,16.17
2017-09-18T16:41:08.633Z,15.60
2017-09-18T16:43:37.741Z,14.60
2017-09-18T16:46:06.724Z,16.10
2017-09-18T16:48:36.148Z,17.43
2017-09-18T16:51:05.126Z,17.97
2017-09-18T16:53:34.134Z,15.20
2017-09-18T16:56:03.985Z,16.47
2017-09-18T16:58:33.773Z,15.93
2017-09-18T17:01:02.761Z,16.50
2017-09-18T17:03:31.821Z,16.30
2017-09-18T17:06:00.835Z,16.00
2017-09-18T17:08:29.961Z,16.27
2017-09-18T17:10:59.996Z,14.87
2017-09-18T17:13:29.674Z,15.80
2017-09-18T17:15:59.273Z,16.07
2017-09-18T17:18:28.968Z,18.23
2017-09-18T17:20:58.773Z,17.00
2017-09-18T17:23:27.848Z,16.70
2017-09-18T17:25:56.876Z,15.80
2017-09-18T17:28:25.876Z,16.47
2017-09-18T17:30:54.827Z,16.07
2017-09-18T17:33:24.155Z,14.87
2017-09-18T17:35:53.913Z,17.47
2017-09-18T17:38:23.673Z,15.17
2017-09-18T17:40:52.636Z,16.07
2017-09-18T17:43:21.652Z,16.23
2017-09-18T17:45:50.620Z,15.17
2017-09-18T17:48:20.387Z,14.37
2017-09-18T17:50:49.357Z,16.93
2017-09-18T17:53:18.342Z,14.23
2017-09-18T17:55:47.298Z,16.10
2017-09-18T17:58:17.044Z,13.87
2017-09-18T18:00:46.016Z,14.83
2017-09-18T18:03:15.414Z,35.27
2017-09-18T18:05:44.381Z,47.37
2017-09-18T18:08:13.773Z,36.50
2017-09-18T18:10:43.525Z,18.47
2017-09-18T18:13:12.597Z,20.40
2017-09-18T18:15:41.543Z,18.53
2017-09-18T18:18:10.513Z,18.67
2017-09-18T18:20:39.493Z,19.23
2017-09-18T18:23:08.544Z,17.63
2017-09-18T18:25:38.291Z,21.77
2017-09-18T18:28:07.647Z,18.73
2017-09-18T18:30:37.420Z,21.00
2017-09-18T18:33:06.382Z,17.97
2017-09-18T18:35:35.395Z,19.77
2017-09-18T18:38:05.208Z,23.40
2017-09-18T18:40:34.178Z,19.83
2017-09-18T18:43:03.540Z,18.93
2017-09-18T18:45:32.538Z,21.27
2017-09-18T18:48:01.899Z,20.67
2017-09-18T18:50:30.899Z,23.00
2017-09-18T18:52:59.890Z,17.30
2017-09-18T18:55:28.900Z,17.73
2017-09-18T18:57:57.889Z,19.47
2017-09-18T19:00:27.324Z,16.60
2017-09-18T19:02:56.692Z,19.10
2017-09-18T19:05:26.201Z,15.50
2017-09-18T19:07:55.682Z,14.20
2017-09-18T19:10:25.088Z,12.43
2017-09-18T19:12:54.131Z,11.57
2017-09-18T19:15:23.577Z,11.07
2017-09-18T19:17:52.556Z,7.93
2017-09-18T19:20:21.534Z,8.10
2017-09-18T19:22:50.923Z,7.80
2017-09-18T19:25:20.522Z,9.33
2017-09-18T19:27:49.913Z,7.40
2017-09-18T19:30:19.311Z,6.97
2017-09-18T19:32:48.698Z,6.17
2017-09-18T19:35:18.160Z,5.77
2017-09-18T19:37:47.900Z,4.93
2017-09-18T19:40:17.340Z,5.70
2017-09-18T19:42:46.276Z,6.00
2017-09-18T19:45:15.791Z,4.87
2017-09-18T19:47:44.759Z,7.00
2017-09-18T19:50:14.154Z,5.70
2017-09-18T19:52:43.145Z,5.63
2017-09-18T19:55:12.203Z,6.10
2017-09-18T19:57:41.153Z,5.80
2017-09-18T20:00:10.536Z,6.30
2017-09-18T20:02:41.057Z,6.13
2017-09-18T20:05:10.199Z,6.13
2017-09-18T20:07:40.176Z,8.73
2017-09-18T20:10:09.171Z,6.17
2017-09-18T20:12:38.315Z,5.20
2017-09-18T20:15:07.746Z,5.13
2017-09-18T20:17:37.120Z,6.97
2017-09-18T20:20:07.829Z,5.23
2017-09-18T20:22:36.797Z,6.37
2017-09-18T20:25:06.196Z,7.20
2017-09-18T20:27:35.546Z,6.37
2017-09-18T20:30:04.544Z,7.53
2017-09-18T20:32:34.275Z,5.50
2017-09-18T20:35:03.244Z,7.30
2017-09-18T20:37:32.982Z,5.57
2017-09-18T20:40:01.962Z,6.53
2017-09-18T20:42:31.687Z,4.93
2017-09-18T20:45:01.060Z,5.27
2017-09-18T20:47:30.035Z,5.57
2017-09-18T20:49:59.050Z,3.93
2017-09-18T20:52:28.047Z,4.53
2017-09-18T20:55:15.308Z,5.83
2017-09-18T20:57:51.509Z,4.40
2017-09-18T21:00:20.504Z,5.40
2017-09-18T21:02:49.496Z,5.33
2017-09-18T21:05:24.275Z,4.30
2017-09-18T21:08:06.033Z,6.50
2017-09-18T21:10:52.554Z,4.00
2017-09-18T21:13:34.145Z,3.57
2017-09-18T21:16:14.680Z,4.30
2017-09-18T21:19:01.929Z,7.37
2017-09-18T21:21:42.636Z,4.97
2017-09-18T21:24:17.610Z,5.47
2017-09-18T21:26:54.510Z,5.30
2017-09-18T21:29:23.522Z,5.77
2017-09-18T21:31:53.368Z,6.83
2017-09-18T21:34:22.316Z,5.50
2017-09-18T21:36:51.281Z,5.10
2017-09-18T21:39:20.302Z,6.83
2017-09-18T21:41:49.332Z,6.97
2017-09-18T21:44:18.284Z,6.27
2017-09-18T21:46:47.335Z,4.93
2017-09-18T21:49:16.295Z,6.43
2017-09-18T21:51:45.671Z,5.60
2017-09-18T21:54:15.380Z,7.20
2017-09-18T21:56:54.288Z,5.23
2017-09-18T21:59:23.241Z,7.20
2017-09-18T22:01:52.186Z,9.50
2017-09-18T22:04:21.183Z,8.17
2017-09-18T22:06:50.145Z,8.30
2017-09-18T22:09:19.856Z,9.73
2017-09-18T22:11:48.814Z,7.20
2017-09-18T22:14:17.802Z,7.60
2017-09-18T22:16:46.769Z,10.17
2017-09-18T22:19:16.485Z,8.87
2017-09-18T22:21:45.455Z,7.30
2017-09-18T22:24:14.428Z,11.97
2017-09-18T22:26:43.375Z,10.63
2017-09-18T22:29:13.099Z,14.73
2017-09-18T22:31:42.828Z,12.60
2017-09-18T22:34:11.891Z,12.70
2017-09-18T22:36:40.843Z,9.40
2017-09-18T22:39:09.830Z,10.70
2017-09-18T22:41:38.772Z,9.20
2017-09-18T22:44:08.284Z,10.03
2017-09-18T22:46:37.253Z,7.70
2017-09-18T22:49:06.604Z,10.90
2017-09-18T22:51:35.564Z,5.97
2017-09-18T22:54:05.300Z,5.80
2017-09-18T22:56:34.641Z,8.17
2017-09-18T22:59:03.601Z,6.23
2017-09-18T23:01:32.527Z,6.43
2017-09-18T23:04:02.258Z,6.10
2017-09-18T23:06:31.189Z,6.30
2017-09-18T23:09:00.205Z,5.63
2017-09-18T23:11:29.245Z,8.17
2017-09-18T23:13:58.175Z,5.83
2017-09-18T23:16:27.152Z,6.03
2017-09-18T23:18:56.111Z,10.37
2017-09-18T23:21:25.842Z,6.10
2017-09-18T23:23:55.569Z,6.13
2017-09-18T23:26:24.516Z,6.33
2017-09-18T23:28:53.489Z,5.97
2017-09-18T23:31:22.433Z,4.70
2017-09-18T23:33:51.389Z,5.30
2017-09-18T23:36:20.415Z,6.90
2017-09-18T23:38:49.365Z,7.07
2017-09-18T23:41:18.359Z,5.33
2017-09-18T23:43:47.359Z,6.17
2017-09-18T23:46:16.736Z,6.40
2017-09-18T23:48:46.091Z,7.33
2017-09-18T23:51:15.940Z,7.50
2017-09-18T23:53:44.893Z,7.83
2017-09-18T23:56:13.879Z,5.87
2017-09-18T23:58:42.856Z,4.93
